sensor_id;sensor_type;location;lat;lon;timestamp;P1;durP1;ratioP1;P2;durP2;ratioP2
5458;SDS011;2752;49.992;8.422;2023-04-19T00:01:26;7.80;;;4.83;;
5458;SDS011;2752;49.992;8.422;2023-04-19T00:03:53;6.00;;;4.23;;
5458;SDS011;2752;49.992;8.422;2023-04-19T00:06:22;9.90;;;4.87;;
5458;SDS011;2752;49.992;8.422;2023-04-19T00:08:49;10.00;;;5.20;;
5458;SDS011;2752;49.992;8.422;2023-04-19T00:11:16;9.07;;;5.00;;
5458;SDS011;2752;49.992;8.422;2023-04-19T00:13:43;9.60;;;5.97;;
5458;SDS011;2752;49.992;8.422;2023-04-19T00:16:10;7.97;;;4.63;;
5458;SDS011;2752;49.992;8.422;2023-04-19T00:18:36;7.20;;;4.70;;
5458;SDS011;2752;49.992;8.422;2023-04-19T00:21:04;6.30;;;3.97;;
5458;SDS011;2752;49.992;8.422;2023-04-19T00:23:32;9.70;;;4.70;;
5458;SDS011;2752;49.992;8.422;2023-04-19T00:26:01;8.07;;;4.57;;
5458;SDS011;2752;49.992;8.422;2023-04-19T00:28:28;5.93;;;4.00;;
5458;SDS011;2752;49.992;8.422;2023-04-19T00:30:55;17.97;;;11.00;;
5458;SDS011;2752;49.992;8.422;2023-04-19T00:33:22;8.60;;;4.80;;
5458;SDS011;2752;49.992;8.422;2023-04-19T00:35:49;7.70;;;4.50;;
5458;SDS011;2752;49.992;8.422;2023-04-19T00:38:15;7.50;;;4.77;;
5458;SDS011;2752;49.992;8.422;2023-04-19T00:40:43;6.67;;;4.07;;
5458;SDS011;2752;49.992;8.422;2023-04-19T00:43:10;9.57;;;5.60;;
5458;SDS011;2752;49.992;8.422;2023-04-19T00:45:37;9.20;;;4.60;;
5458;SDS011;2752;49.992;8.422;2023-04-19T00:48:04;6.70;;;4.40;;
5458;SDS011;2752;49.992;8.422;2023-04-19T00:50:32;8.10;;;4.77;;
5458;SDS011;2752;49.992;8.422;2023-04-19T00:52:59;7.33;;;4.73;;
5458;SDS011;2752;49.992;8.422;2023-04-19T00:55:27;7.40;;;4.70;;
5458;SDS011;2752;49.992;8.422;2023-04-19T00:57:55;10.20;;;5.30;;
5458;SDS011;2752;49.992;8.422;2023-04-19T01:00:22;7.00;;;4.90;;
5458;SDS011;2752;49.992;8.422;2023-04-19T01:02:49;10.00;;;5.70;;
5458;SDS011;2752;49.992;8.422;2023-04-19T01:05:16;10.03;;;4.93;;
5458;SDS011;2752;49.992;8.422;2023-04-19T01:07:43;8.20;;;5.50;;
5458;SDS011;2752;49.992;8.422;2023-04-19T01:10:10;10.10;;;6.17;;
5458;SDS011;2752;49.992;8.422;2023-04-19T01:12:36;7.70;;;4.27;;
5458;SDS011;2752;49.992;8.422;2023-04-19T01:15:05;8.10;;;5.40;;
5458;SDS011;2752;49.992;8.422;2023-04-19T01:17:33;7.77;;;5.33;;
5458;SDS011;2752;49.992;8.422;2023-04-19T01:20:00;8.93;;;5.50;;
5458;SDS011;2752;49.992;8.422;2023-04-19T01:22:29;8.43;;;5.30;;
5458;SDS011;2752;49.992;8.422;2023-04-19T01:24:56;7.30;;;4.90;;
5458;SDS011;2752;49.992;8.422;2023-04-19T01:27:23;10.00;;;6.13;;
5458;SDS011;2752;49.992;8.422;2023-04-19T01:29:50;9.50;;;5.80;;
5458;SDS011;2752;49.992;8.422;2023-04-19T01:32:17;12.10;;;5.40;;
5458;SDS011;2752;49.992;8.422;2023-04-19T01:34:44;10.80;;;6.90;;
5458;SDS011;2752;49.992;8.422;2023-04-19T01:37:10;10.27;;;6.07;;
5458;SDS011;2752;49.992;8.422;2023-04-19T01:39:38;11.40;;;6.40;;
5458;SDS011;2752;49.992;8.422;2023-04-19T01:42:05;14.27;;;6.93;;
5458;SDS011;2752;49.992;8.422;2023-04-19T01:44:32;10.67;;;6.70;;
5458;SDS011;2752;49.992;8.422;2023-04-19T01:46:58;8.33;;;5.47;;
5458;SDS011;2752;49.992;8.422;2023-04-19T01:49:25;10.10;;;5.73;;
5458;SDS011;2752;49.992;8.422;2023-04-19T01:51:51;8.90;;;5.30;;
5458;SDS011;2752;49.992;8.422;2023-04-19T01:54:18;11.93;;;6.63;;
5458;SDS011;2752;49.992;8.422;2023-04-19T01:56:46;14.03;;;6.57;;
5458;SDS011;2752;49.992;8.422;2023-04-19T01:59:13;10.93;;;6.87;;
5458;SDS011;2752;49.992;8.422;2023-04-19T02:01:39;12.70;;;7.13;;
5458;SDS011;2752;49.992;8.422;2023-04-19T02:04:06;10.53;;;6.20;;
5458;SDS011;2752;49.992;8.422;2023-04-19T02:06:32;12.07;;;7.33;;
5458;SDS011;2752;49.992;8.422;2023-04-19T02:08:59;12.23;;;7.07;;
5458;SDS011;2752;49.992;8.422;2023-04-19T02:11:26;12.23;;;7.60;;
5458;SDS011;2752;49.992;8.422;2023-04-19T02:13:54;12.53;;;7.30;;
5458;SDS011;2752;49.992;8.422;2023-04-19T02:16:21;13.90;;;6.70;;
5458;SDS011;2752;49.992;8.422;2023-04-19T02:18:48;14.87;;;7.83;;
5458;SDS011;2752;49.992;8.422;2023-04-19T02:21:16;12.13;;;6.87;;
5458;SDS011;2752;49.992;8.422;2023-04-19T02:23:42;12.93;;;7.57;;
5458;SDS011;2752;49.992;8.422;2023-04-19T02:26:09;12.37;;;7.33;;
5458;SDS011;2752;49.992;8.422;2023-04-19T02:28:37;13.30;;;8.40;;
5458;SDS011;2752;49.992;8.422;2023-04-19T02:31:05;14.33;;;7.63;;
5458;SDS011;2752;49.992;8.422;2023-04-19T02:33:32;13.60;;;7.93;;
5458;SDS011;2752;49.992;8.422;2023-04-19T02:35:59;16.53;;;8.03;;
5458;SDS011;2752;49.992;8.422;2023-04-19T02:38:25;15.90;;;8.10;;
5458;SDS011;2752;49.992;8.422;2023-04-19T02:40:52;14.53;;;8.83;;
5458;SDS011;2752;49.992;8.422;2023-04-19T02:43:18;14.10;;;7.17;;
5458;SDS011;2752;49.992;8.422;2023-04-19T02:45:45;15.67;;;8.57;;
5458;SDS011;2752;49.992;8.422;2023-04-19T02:48:13;16.33;;;9.27;;
5458;SDS011;2752;49.992;8.422;2023-04-19T02:50:40;14.80;;;8.63;;
5458;SDS011;2752;49.992;8.422;2023-04-19T02:53:07;15.10;;;7.87;;
5458;SDS011;2752;49.992;8.422;2023-04-19T02:55:33;14.93;;;8.33;;
5458;SDS011;2752;49.992;8.422;2023-04-19T02:58:00;14.73;;;8.87;;
5458;SDS011;2752;49.992;8.422;2023-04-19T03:00:27;16.27;;;9.37;;
5458;SDS011;2752;49.992;8.422;2023-04-19T03:02:54;22.63;;;9.80;;
5458;SDS011;2752;49.992;8.422;2023-04-19T03:05:22;15.23;;;8.63;;
5458;SDS011;2752;49.992;8.422;2023-04-19T03:07:48;14.40;;;8.33;;
5458;SDS011;2752;49.992;8.422;2023-04-19T03:10:15;15.37;;;8.50;;
5458;SDS011;2752;49.992;8.422;2023-04-19T03:12:42;17.13;;;9.37;;
5458;SDS011;2752;49.992;8.422;2023-04-19T03:15:09;17.03;;;8.90;;
5458;SDS011;2752;49.992;8.422;2023-04-19T03:17:36;16.53;;;9.60;;
5458;SDS011;2752;49.992;8.422;2023-04-19T03:20:03;20.63;;;9.70;;
5458;SDS011;2752;49.992;8.422;2023-04-19T03:22:35;23.73;;;11.30;;
5458;SDS011;2752;49.992;8.422;2023-04-19T03:25:01;16.30;;;8.97;;
5458;SDS011;2752;49.992;8.422;2023-04-19T03:27:28;14.03;;;8.57;;
5458;SDS011;2752;49.992;8.422;2023-04-19T03:29:55;16.20;;;8.70;;
5458;SDS011;2752;49.992;8.422;2023-04-19T03:32:22;22.33;;;9.30;;
5458;SDS011;2752;49.992;8.422;2023-04-19T03:34:48;14.90;;;9.40;;
5458;SDS011;2752;49.992;8.422;2023-04-19T03:37:15;18.40;;;9.67;;
5458;SDS011;2752;49.992;8.422;2023-04-19T03:39:43;17.07;;;9.47;;
5458;SDS011;2752;49.992;8.422;2023-04-19T03:42:10;17.40;;;10.00;;
5458;SDS011;2752;49.992;8.422;2023-04-19T03:44:36;17.00;;;9.20;;
5458;SDS011;2752;49.992;8.422;2023-04-19T03:47:03;20.37;;;8.93;;
5458;SDS011;2752;49.992;8.422;2023-04-19T03:49:30;16.20;;;8.93;;
5458;SDS011;2752;49.992;8.422;2023-04-19T03:51:56;18.77;;;10.23;;
5458;SDS011;2752;49.992;8.422;2023-04-19T03:54:23;19.17;;;9.27;;
5458;SDS011;2752;49.992;8.422;2023-04-19T03:56:51;18.77;;;9.87;;
5458;SDS011;2752;49.992;8.422;2023-04-19T03:59:18;18.80;;;9.20;;
5458;SDS011;2752;49.992;8.422;2023-04-19T04:01:44;20.00;;;9.50;;
5458;SDS011;2752;49.992;8.422;2023-04-19T04:04:11;18.20;;;9.87;;
5458;SDS011;2752;49.992;8.422;2023-04-19T04:06:38;19.90;;;8.87;;
5458;SDS011;2752;49.992;8.422;2023-04-19T04:09:04;16.30;;;8.90;;
5458;SDS011;2752;49.992;8.422;2023-04-19T04:11:31;18.83;;;9.43;;
5458;SDS011;2752;49.992;8.422;2023-04-19T04:13:59;19.30;;;10.53;;
5458;SDS011;2752;49.992;8.422;2023-04-19T04:16:26;24.07;;;10.73;;
5458;SDS011;2752;49.992;8.422;2023-04-19T04:18:52;21.13;;;10.27;;
5458;SDS011;2752;49.992;8.422;2023-04-19T04:21:19;20.37;;;10.70;;
5458;SDS011;2752;49.992;8.422;2023-04-19T04:23:48;19.20;;;11.10;;
5458;SDS011;2752;49.992;8.422;2023-04-19T04:26:15;20.33;;;10.80;;
5458;SDS011;2752;49.992;8.422;2023-04-19T04:28:44;21.00;;;10.67;;
5458;SDS011;2752;49.992;8.422;2023-04-19T04:31:12;22.83;;;11.13;;
5458;SDS011;2752;49.992;8.422;2023-04-19T04:33:42;21.70;;;11.63;;
5458;SDS011;2752;49.992;8.422;2023-04-19T04:36:09;24.70;;;12.27;;
5458;SDS011;2752;49.992;8.422;2023-04-19T04:38:36;19.90;;;10.93;;
5458;SDS011;2752;49.992;8.422;2023-04-19T04:41:03;26.63;;;12.23;;
5458;SDS011;2752;49.992;8.422;2023-04-19T04:43:30;18.50;;;10.90;;
5458;SDS011;2752;49.992;8.422;2023-04-19T04:45:57;23.67;;;12.73;;
5458;SDS011;2752;49.992;8.422;2023-04-19T04:48:26;23.10;;;12.23;;
5458;SDS011;2752;49.992;8.422;2023-04-19T04:50:52;22.90;;;11.30;;
5458;SDS011;2752;49.992;8.422;2023-04-19T04:53:19;17.90;;;11.63;;
5458;SDS011;2752;49.992;8.422;2023-04-19T04:55:46;19.63;;;11.63;;
5458;SDS011;2752;49.992;8.422;2023-04-19T04:58:12;18.97;;;10.67;;
5458;SDS011;2752;49.992;8.422;2023-04-19T05:00:39;24.60;;;11.23;;
5458;SDS011;2752;49.992;8.422;2023-04-19T05:03:05;24.17;;;10.73;;
5458;SDS011;2752;49.992;8.422;2023-04-19T05:05:33;20.70;;;11.13;;
5458;SDS011;2752;49.992;8.422;2023-04-19T05:08:00;22.27;;;11.43;;
5458;SDS011;2752;49.992;8.422;2023-04-19T05:10:27;23.00;;;12.57;;
5458;SDS011;2752;49.992;8.422;2023-04-19T05:12:53;21.93;;;12.20;;
5458;SDS011;2752;49.992;8.422;2023-04-19T05:15:20;21.90;;;11.23;;
5458;SDS011;2752;49.992;8.422;2023-04-19T05:17:47;21.03;;;12.70;;
5458;SDS011;2752;49.992;8.422;2023-04-19T05:20:14;20.33;;;11.87;;
5458;SDS011;2752;49.992;8.422;2023-04-19T05:22:42;21.17;;;12.27;;
5458;SDS011;2752;49.992;8.422;2023-04-19T05:25:08;25.07;;;12.20;;
5458;SDS011;2752;49.992;8.422;2023-04-19T05:27:35;21.63;;;12.37;;
5458;SDS011;2752;49.992;8.422;2023-04-19T05:30:02;23.27;;;12.40;;
5458;SDS011;2752;49.992;8.422;2023-04-19T05:32:30;21.80;;;12.57;;
5458;SDS011;2752;49.992;8.422;2023-04-19T05:34:56;25.97;;;14.00;;
5458;SDS011;2752;49.992;8.422;2023-04-19T05:37:23;20.63;;;11.80;;
5458;SDS011;2752;49.992;8.422;2023-04-19T05:39:51;25.80;;;12.27;;
5458;SDS011;2752;49.992;8.422;2023-04-19T05:42:21;23.50;;;13.03;;
5458;SDS011;2752;49.992;8.422;2023-04-19T05:44:47;27.60;;;13.40;;
5458;SDS011;2752;49.992;8.422;2023-04-19T05:47:14;25.60;;;13.17;;
5458;SDS011;2752;49.992;8.422;2023-04-19T05:49:41;27.27;;;13.27;;
5458;SDS011;2752;49.992;8.422;2023-04-19T05:52:08;21.27;;;11.43;;
5458;SDS011;2752;49.992;8.422;2023-04-19T05:54:35;22.17;;;11.77;;
5458;SDS011;2752;49.992;8.422;2023-04-19T05:57:03;21.73;;;11.60;;
5458;SDS011;2752;49.992;8.422;2023-04-19T05:59:30;24.10;;;12.67;;
5458;SDS011;2752;49.992;8.422;2023-04-19T06:01:56;25.40;;;11.00;;
5458;SDS011;2752;49.992;8.422;2023-04-19T06:04:23;20.60;;;12.33;;
5458;SDS011;2752;49.992;8.422;2023-04-19T06:06:50;24.13;;;11.47;;
5458;SDS011;2752;49.992;8.422;2023-04-19T06:09:16;19.10;;;10.03;;
5458;SDS011;2752;49.992;8.422;2023-04-19T06:11:43;23.40;;;11.30;;
5458;SDS011;2752;49.992;8.422;2023-04-19T06:14:11;21.50;;;10.07;;
5458;SDS011;2752;49.992;8.422;2023-04-19T06:16:38;25.63;;;11.00;;
5458;SDS011;2752;49.992;8.422;2023-04-19T06:19:05;21.50;;;11.30;;
5458;SDS011;2752;49.992;8.422;2023-04-19T06:21:32;16.90;;;9.23;;
5458;SDS011;2752;49.992;8.422;2023-04-19T06:23:59;19.07;;;10.20;;
5458;SDS011;2752;49.992;8.422;2023-04-19T06:26:25;18.10;;;10.30;;
5458;SDS011;2752;49.992;8.422;2023-04-19T06:28:52;17.07;;;10.20;;
5458;SDS011;2752;49.992;8.422;2023-04-19T06:31:20;16.13;;;9.73;;
5458;SDS011;2752;49.992;8.422;2023-04-19T06:33:47;19.10;;;10.47;;
5458;SDS011;2752;49.992;8.422;2023-04-19T06:36:13;22.70;;;9.60;;
5458;SDS011;2752;49.992;8.422;2023-04-19T06:38:40;16.93;;;8.73;;
5458;SDS011;2752;49.992;8.422;2023-04-19T06:41:08;17.67;;;8.77;;
5458;SDS011;2752;49.992;8.422;2023-04-19T06:43:35;16.63;;;8.83;;
5458;SDS011;2752;49.992;8.422;2023-04-19T06:46:03;16.47;;;8.70;;
5458;SDS011;2752;49.992;8.422;2023-04-19T06:48:32;13.30;;;8.23;;
5458;SDS011;2752;49.992;8.422;2023-04-19T06:50:59;13.30;;;8.73;;
5458;SDS011;2752;49.992;8.422;2023-04-19T06:53:26;11.90;;;7.67;;
5458;SDS011;2752;49.992;8.422;2023-04-19T06:55:57;21.83;;;7.40;;
5458;SDS011;2752;49.992;8.422;2023-04-19T06:58:25;16.93;;;7.83;;
5458;SDS011;2752;49.992;8.422;2023-04-19T07:00:53;13.33;;;7.17;;
5458;SDS011;2752;49.992;8.422;2023-04-19T07:03:19;11.73;;;6.60;;
5458;SDS011;2752;49.992;8.422;2023-04-19T07:05:47;9.10;;;6.50;;
5458;SDS011;2752;49.992;8.422;2023-04-19T07:08:16;12.23;;;6.60;;
5458;SDS011;2752;49.992;8.422;2023-04-19T07:10:43;15.60;;;6.90;;
5458;SDS011;2752;49.992;8.422;2023-04-19T07:13:09;12.93;;;6.07;;
5458;SDS011;2752;49.992;8.422;2023-04-19T07:15:36;12.27;;;6.30;;
5458;SDS011;2752;49.992;8.422;2023-04-19T07:18:03;14.30;;;6.53;;
5458;SDS011;2752;49.992;8.422;2023-04-19T07:20:30;12.80;;;7.07;;
5458;SDS011;2752;49.992;8.422;2023-04-19T07:22:58;10.50;;;5.70;;
5458;SDS011;2752;49.992;8.422;2023-04-19T07:25:25;9.07;;;5.53;;
5458;SDS011;2752;49.992;8.422;2023-04-19T07:27:52;13.00;;;6.20;;
5458;SDS011;2752;49.992;8.422;2023-04-19T07:30:18;11.10;;;5.90;;
5458;SDS011;2752;49.992;8.422;2023-04-19T07:32:45;9.23;;;5.33;;
5458;SDS011;2752;49.992;8.422;2023-04-19T07:35:12;8.23;;;5.07;;
5458;SDS011;2752;49.992;8.422;2023-04-19T07:37:39;8.63;;;5.00;;
5458;SDS011;2752;49.992;8.422;2023-04-19T07:40:07;14.67;;;4.83;;
5458;SDS011;2752;49.992;8.422;2023-04-19T07:42:35;8.17;;;5.20;;
5458;SDS011;2752;49.992;8.422;2023-04-19T07:45:01;10.13;;;5.47;;
5458;SDS011;2752;49.992;8.422;2023-04-19T07:47:29;6.40;;;3.90;;
5458;SDS011;2752;49.992;8.422;2023-04-19T07:49:56;27.37;;;4.67;;
5458;SDS011;2752;49.992;8.422;2023-04-19T07:52:23;9.17;;;4.70;;
5458;SDS011;2752;49.992;8.422;2023-04-19T07:54:49;8.10;;;4.70;;
5458;SDS011;2752;49.992;8.422;2023-04-19T07:57:17;8.67;;;4.40;;
5458;SDS011;2752;49.992;8.422;2023-04-19T07:59:44;9.00;;;4.53;;
5458;SDS011;2752;49.992;8.422;2023-04-19T08:02:10;15.53;;;4.93;;
5458;SDS011;2752;49.992;8.422;2023-04-19T08:04:37;12.27;;;4.33;;
5458;SDS011;2752;49.992;8.422;2023-04-19T08:07:04;13.30;;;4.27;;
5458;SDS011;2752;49.992;8.422;2023-04-19T08:09:32;7.30;;;4.07;;
5458;SDS011;2752;49.992;8.422;2023-04-19T08:11:58;7.10;;;4.20;;
5458;SDS011;2752;49.992;8.422;2023-04-19T08:14:26;12.33;;;4.30;;
5458;SDS011;2752;49.992;8.422;2023-04-19T08:16:53;9.13;;;4.60;;
5458;SDS011;2752;49.992;8.422;2023-04-19T08:19:20;6.93;;;4.40;;
5458;SDS011;2752;49.992;8.422;2023-04-19T08:21:47;9.63;;;4.30;;
5458;SDS011;2752;49.992;8.422;2023-04-19T08:24:13;6.47;;;3.97;;
5458;SDS011;2752;49.992;8.422;2023-04-19T08:26:40;9.57;;;5.10;;
5458;SDS011;2752;49.992;8.422;2023-04-19T08:29:07;8.00;;;4.30;;
5458;SDS011;2752;49.992;8.422;2023-04-19T08:31:35;6.80;;;3.83;;
5458;SDS011;2752;49.992;8.422;2023-04-19T08:34:02;5.43;;;3.73;;
5458;SDS011;2752;49.992;8.422;2023-04-19T08:36:28;7.30;;;4.40;;
5458;SDS011;2752;49.992;8.422;2023-04-19T08:38:55;6.77;;;3.60;;
5458;SDS011;2752;49.992;8.422;2023-04-19T08:41:22;7.80;;;3.77;;
5458;SDS011;2752;49.992;8.422;2023-04-19T08:43:51;7.10;;;3.80;;
5458;SDS011;2752;49.992;8.422;2023-04-19T08:46:20;5.77;;;4.00;;
5458;SDS011;2752;49.992;8.422;2023-04-19T08:48:49;9.93;;;4.27;;
5458;SDS011;2752;49.992;8.422;2023-04-19T08:51:17;7.50;;;4.33;;
5458;SDS011;2752;49.992;8.422;2023-04-19T08:53:44;6.50;;;4.17;;
5458;SDS011;2752;49.992;8.422;2023-04-19T08:56:12;4.43;;;3.10;;
5458;SDS011;2752;49.992;8.422;2023-04-19T08:58:39;10.13;;;4.20;;
5458;SDS011;2752;49.992;8.422;2023-04-19T09:01:06;7.43;;;3.93;;
5458;SDS011;2752;49.992;8.422;2023-04-19T09:03:34;8.20;;;4.50;;
5458;SDS011;2752;49.992;8.422;2023-04-19T09:06:02;5.90;;;3.63;;
5458;SDS011;2752;49.992;8.422;2023-04-19T09:08:29;8.70;;;4.90;;
5458;SDS011;2752;49.992;8.422;2023-04-19T09:10:56;3.87;;;2.67;;
5458;SDS011;2752;49.992;8.422;2023-04-19T09:13:25;4.70;;;3.50;;
5458;SDS011;2752;49.992;8.422;2023-04-19T09:15:54;5.50;;;4.00;;
5458;SDS011;2752;49.992;8.422;2023-04-19T09:18:23;6.63;;;3.83;;
5458;SDS011;2752;49.992;8.422;2023-04-19T09:20:50;9.27;;;4.50;;
5458;SDS011;2752;49.992;8.422;2023-04-19T09:23:23;9.87;;;4.63;;
5458;SDS011;2752;49.992;8.422;2023-04-19T09:25:52;5.27;;;3.63;;
5458;SDS011;2752;49.992;8.422;2023-04-19T09:28:21;5.87;;;3.57;;
5458;SDS011;2752;49.992;8.422;2023-04-19T09:30:48;7.10;;;3.83;;
5458;SDS011;2752;49.992;8.422;2023-04-19T09:33:32;10.23;;;4.00;;
5458;SDS011;2752;49.992;8.422;2023-04-19T09:35:59;5.60;;;3.27;;
5458;SDS011;2752;49.992;8.422;2023-04-19T09:38:28;8.73;;;4.20;;
5458;SDS011;2752;49.992;8.422;2023-04-19T09:41:04;10.30;;;4.17;;
5458;SDS011;2752;49.992;8.422;2023-04-19T09:43:32;6.30;;;4.30;;
5458;SDS011;2752;49.992;8.422;2023-04-19T09:45:59;5.40;;;3.40;;
5458;SDS011;2752;49.992;8.422;2023-04-19T09:48:26;7.07;;;4.63;;
5458;SDS011;2752;49.992;8.422;2023-04-19T09:50:53;11.17;;;4.27;;
5458;SDS011;2752;49.992;8.422;2023-04-19T09:53:21;6.80;;;3.90;;
5458;SDS011;2752;49.992;8.422;2023-04-19T09:55:50;7.73;;;3.80;;
5458;SDS011;2752;49.992;8.422;2023-04-19T09:58:18;5.50;;;3.70;;
5458;SDS011;2752;49.992;8.422;2023-04-19T10:00:46;11.23;;;4.40;;
5458;SDS011;2752;49.992;8.422;2023-04-19T10:03:16;5.00;;;3.60;;
5458;SDS011;2752;49.992;8.422;2023-04-19T10:05:44;6.17;;;4.03;;
5458;SDS011;2752;49.992;8.422;2023-04-19T10:08:11;5.73;;;3.90;;
5458;SDS011;2752;49.992;8.422;2023-04-19T10:10:38;6.77;;;4.30;;
5458;SDS011;2752;49.992;8.422;2023-04-19T10:13:07;6.20;;;4.17;;
5458;SDS011;2752;49.992;8.422;2023-04-19T10:15:36;5.87;;;4.30;;
5458;SDS011;2752;49.992;8.422;2023-04-19T10:18:04;7.60;;;4.00;;
5458;SDS011;2752;49.992;8.422;2023-04-19T10:20:32;10.18;;;4.65;;
5458;SDS011;2752;49.992;8.422;2023-04-19T10:23:05;6.43;;;4.00;;
5458;SDS011;2752;49.992;8.422;2023-04-19T10:25:35;8.37;;;4.67;;
5458;SDS011;2752;49.992;8.422;2023-04-19T10:28:03;7.27;;;4.00;;
5458;SDS011;2752;49.992;8.422;2023-04-19T10:30:31;8.10;;;3.90;;
5458;SDS011;2752;49.992;8.422;2023-04-19T10:32:58;9.30;;;4.50;;
5458;SDS011;2752;49.992;8.422;2023-04-19T10:35:27;6.70;;;4.50;;
5458;SDS011;2752;49.992;8.422;2023-04-19T10:38:04;9.30;;;4.30;;
5458;SDS011;2752;49.992;8.422;2023-04-19T10:40:54;9.33;;;4.80;;
5458;SDS011;2752;49.992;8.422;2023-04-19T10:43:28;11.87;;;4.90;;
5458;SDS011;2752;49.992;8.422;2023-04-19T10:45:59;11.30;;;4.17;;
5458;SDS011;2752;49.992;8.422;2023-04-19T10:48:36;8.47;;;4.00;;
5458;SDS011;2752;49.992;8.422;2023-04-19T10:51:04;6.90;;;4.30;;
5458;SDS011;2752;49.992;8.422;2023-04-19T10:53:51;6.57;;;4.33;;
5458;SDS011;2752;49.992;8.422;2023-04-19T10:59:22;10.37;;;4.20;;
5458;SDS011;2752;49.992;8.422;2023-04-19T11:01:51;7.80;;;4.20;;
5458;SDS011;2752;49.992;8.422;2023-04-19T11:04:20;7.53;;;4.10;;
5458;SDS011;2752;49.992;8.422;2023-04-19T11:07:03;7.40;;;4.77;;
5458;SDS011;2752;49.992;8.422;2023-04-19T11:09:31;8.37;;;4.70;;
5458;SDS011;2752;49.992;8.422;2023-04-19T11:12:00;8.50;;;4.30;;
5458;SDS011;2752;49.992;8.422;2023-04-19T11:14:29;6.40;;;4.00;;
5458;SDS011;2752;49.992;8.422;2023-04-19T11:16:59;7.03;;;4.37;;
5458;SDS011;2752;49.992;8.422;2023-04-19T11:19:26;9.00;;;3.93;;
5458;SDS011;2752;49.992;8.422;2023-04-19T11:21:52;8.87;;;5.03;;
5458;SDS011;2752;49.992;8.422;2023-04-19T11:24:23;12.43;;;4.07;;
5458;SDS011;2752;49.992;8.422;2023-04-19T11:26:50;8.33;;;4.80;;
5458;SDS011;2752;49.992;8.422;2023-04-19T11:29:18;7.03;;;3.43;;
5458;SDS011;2752;49.992;8.422;2023-04-19T11:31:45;12.93;;;3.97;;
5458;SDS011;2752;49.992;8.422;2023-04-19T11:34:13;9.00;;;3.50;;
5458;SDS011;2752;49.992;8.422;2023-04-19T11:36:46;5.30;;;3.07;;
5458;SDS011;2752;49.992;8.422;2023-04-19T11:39:13;7.43;;;4.50;;
5458;SDS011;2752;49.992;8.422;2023-04-19T11:41:40;12.10;;;3.83;;
5458;SDS011;2752;49.992;8.422;2023-04-19T11:44:11;8.30;;;3.20;;
5458;SDS011;2752;49.992;8.422;2023-04-19T11:46:38;7.57;;;3.53;;
5458;SDS011;2752;49.992;8.422;2023-04-19T11:49:05;6.10;;;3.20;;
5458;SDS011;2752;49.992;8.422;2023-04-19T11:51:33;8.73;;;4.17;;
5458;SDS011;2752;49.992;8.422;2023-04-19T11:54:00;6.63;;;3.50;;
5458;SDS011;2752;49.992;8.422;2023-04-19T11:56:26;8.80;;;3.10;;
5458;SDS011;2752;49.992;8.422;2023-04-19T11:58:55;3.40;;;2.67;;
5458;SDS011;2752;49.992;8.422;2023-04-19T12:01:22;10.37;;;4.13;;
5458;SDS011;2752;49.992;8.422;2023-04-19T12:03:50;6.20;;;3.03;;
5458;SDS011;2752;49.992;8.422;2023-04-19T12:06:21;12.57;;;3.30;;
5458;SDS011;2752;49.992;8.422;2023-04-19T12:08:50;4.60;;;2.80;;
5458;SDS011;2752;49.992;8.422;2023-04-19T12:11:19;6.40;;;3.37;;
5458;SDS011;2752;49.992;8.422;2023-04-19T12:13:47;3.00;;;2.47;;
5458;SDS011;2752;49.992;8.422;2023-04-19T12:16:13;6.03;;;2.50;;
5458;SDS011;2752;49.992;8.422;2023-04-19T12:18:52;4.97;;;2.50;;
5458;SDS011;2752;49.992;8.422;2023-04-19T12:21:25;3.90;;;2.80;;
5458;SDS011;2752;49.992;8.422;2023-04-19T12:23:57;7.90;;;2.50;;
5458;SDS011;2752;49.992;8.422;2023-04-19T12:26:26;4.10;;;2.70;;
5458;SDS011;2752;49.992;8.422;2023-04-19T12:28:54;3.60;;;2.37;;
5458;SDS011;2752;49.992;8.422;2023-04-19T12:31:20;6.20;;;2.00;;
5458;SDS011;2752;49.992;8.422;2023-04-19T12:33:47;4.60;;;2.10;;
5458;SDS011;2752;49.992;8.422;2023-04-19T12:36:14;3.50;;;2.20;;
5458;SDS011;2752;49.992;8.422;2023-04-19T12:38:41;8.20;;;1.80;;
5458;SDS011;2752;49.992;8.422;2023-04-19T12:41:09;6.60;;;2.43;;
5458;SDS011;2752;49.992;8.422;2023-04-19T12:43:36;4.30;;;2.20;;
5458;SDS011;2752;49.992;8.422;2023-04-19T12:46:03;3.90;;;2.30;;
5458;SDS011;2752;49.992;8.422;2023-04-19T12:48:30;2.40;;;1.77;;
5458;SDS011;2752;49.992;8.422;2023-04-19T12:50:57;5.30;;;2.60;;
5458;SDS011;2752;49.992;8.422;2023-04-19T12:53:23;3.20;;;2.30;;
5458;SDS011;2752;49.992;8.422;2023-04-19T12:55:50;1.80;;;1.60;;
5458;SDS011;2752;49.992;8.422;2023-04-19T12:58:18;5.33;;;2.13;;
5458;SDS011;2752;49.992;8.422;2023-04-19T13:00:45;3.37;;;1.97;;
5458;SDS011;2752;49.992;8.422;2023-04-19T13:03:12;4.17;;;1.50;;
5458;SDS011;2752;49.992;8.422;2023-04-19T13:05:38;1.90;;;1.50;;
5458;SDS011;2752;49.992;8.422;2023-04-19T13:08:05;1.73;;;1.33;;
5458;SDS011;2752;49.992;8.422;2023-04-19T13:10:32;3.50;;;2.10;;
5458;SDS011;2752;49.992;8.422;2023-04-19T13:12:58;4.73;;;1.53;;
5458;SDS011;2752;49.992;8.422;2023-04-19T13:15:26;5.20;;;1.30;;
5458;SDS011;2752;49.992;8.422;2023-04-19T13:17:53;2.70;;;1.70;;
5458;SDS011;2752;49.992;8.422;2023-04-19T13:20:20;3.20;;;1.80;;
5458;SDS011;2752;49.992;8.422;2023-04-19T13:22:46;4.07;;;1.63;;
5458;SDS011;2752;49.992;8.422;2023-04-19T13:25:13;8.67;;;1.50;;
5458;SDS011;2752;49.992;8.422;2023-04-19T13:27:40;3.27;;;1.83;;
5458;SDS011;2752;49.992;8.422;2023-04-19T13:30:07;2.43;;;1.50;;
5458;SDS011;2752;49.992;8.422;2023-04-19T13:32:35;4.43;;;1.70;;
5458;SDS011;2752;49.992;8.422;2023-04-19T13:35:02;2.13;;;1.40;;
5458;SDS011;2752;49.992;8.422;2023-04-19T13:37:29;2.00;;;1.17;;
5458;SDS011;2752;49.992;8.422;2023-04-19T13:39:56;2.60;;;1.80;;
5458;SDS011;2752;49.992;8.422;2023-04-19T13:42:22;1.73;;;1.20;;
5458;SDS011;2752;49.992;8.422;2023-04-19T13:44:49;3.67;;;1.30;;
5458;SDS011;2752;49.992;8.422;2023-04-19T13:47:16;3.17;;;1.20;;
5458;SDS011;2752;49.992;8.422;2023-04-19T13:49:44;2.93;;;1.53;;
5458;SDS011;2752;49.992;8.422;2023-04-19T13:52:16;3.13;;;1.57;;
5458;SDS011;2752;49.992;8.422;2023-04-19T13:54:42;4.40;;;1.23;;
5458;SDS011;2752;49.992;8.422;2023-04-19T13:57:09;4.23;;;1.70;;
5458;SDS011;2752;49.992;8.422;2023-04-19T13:59:36;2.47;;;1.40;;
5458;SDS011;2752;49.992;8.422;2023-04-19T14:02:02;2.00;;;1.40;;
5458;SDS011;2752;49.992;8.422;2023-04-19T14:04:29;4.10;;;1.20;;
5458;SDS011;2752;49.992;8.422;2023-04-19T14:06:57;1.60;;;1.10;;
5458;SDS011;2752;49.992;8.422;2023-04-19T14:09:24;1.80;;;1.37;;
5458;SDS011;2752;49.992;8.422;2023-04-19T14:11:51;5.43;;;1.60;;
5458;SDS011;2752;49.992;8.422;2023-04-19T14:14:17;3.80;;;1.67;;
5458;SDS011;2752;49.992;8.422;2023-04-19T14:16:44;4.60;;;1.47;;
5458;SDS011;2752;49.992;8.422;2023-04-19T14:19:11;3.43;;;1.00;;
5458;SDS011;2752;49.992;8.422;2023-04-19T14:21:38;6.63;;;2.10;;
5458;SDS011;2752;49.992;8.422;2023-04-19T14:24:06;1.87;;;1.27;;
5458;SDS011;2752;49.992;8.422;2023-04-19T14:26:33;3.77;;;1.20;;
5458;SDS011;2752;49.992;8.422;2023-04-19T14:28:59;3.63;;;1.40;;
5458;SDS011;2752;49.992;8.422;2023-04-19T14:31:26;4.87;;;1.87;;
5458;SDS011;2752;49.992;8.422;2023-04-19T14:33:53;2.17;;;1.50;;
5458;SDS011;2752;49.992;8.422;2023-04-19T14:36:20;2.07;;;1.60;;
5458;SDS011;2752;49.992;8.422;2023-04-19T14:38:47;2.07;;;1.30;;
5458;SDS011;2752;49.992;8.422;2023-04-19T14:41:15;2.67;;;1.30;;
5458;SDS011;2752;49.992;8.422;2023-04-19T14:43:41;2.30;;;1.37;;
5458;SDS011;2752;49.992;8.422;2023-04-19T14:46:08;3.97;;;1.53;;
5458;SDS011;2752;49.992;8.422;2023-04-19T14:48:35;3.03;;;1.63;;
5458;SDS011;2752;49.992;8.422;2023-04-19T14:51:01;3.00;;;1.60;;
5458;SDS011;2752;49.992;8.422;2023-04-19T14:53:28;3.97;;;1.97;;
5458;SDS011;2752;49.992;8.422;2023-04-19T14:55:55;5.90;;;1.90;;
5458;SDS011;2752;49.992;8.422;2023-04-19T14:58:23;1.70;;;1.30;;
5458;SDS011;2752;49.992;8.422;2023-04-19T15:00:50;2.57;;;1.40;;
5458;SDS011;2752;49.992;8.422;2023-04-19T15:03:18;2.80;;;1.40;;
5458;SDS011;2752;49.992;8.422;2023-04-19T15:05:44;3.30;;;1.30;;
5458;SDS011;2752;49.992;8.422;2023-04-19T15:08:11;2.93;;;1.70;;
5458;SDS011;2752;49.992;8.422;2023-04-19T15:10:38;2.60;;;1.97;;
5458;SDS011;2752;49.992;8.422;2023-04-19T15:13:05;3.27;;;1.33;;